createdAt,value
2023-04-01T00:00:07.739Z,49.10
2023-04-01T00:02:56.661Z,49.10
2023-04-01T00:05:45.014Z,49.10
2023-04-01T00:08:33.806Z,49.10
2023-04-01T00:11:22.281Z,49.10
2023-04-01T00:14:11.583Z,49.00
2023-04-01T00:17:01.607Z,49.10
2023-04-01T00:19:50.556Z,49.00
2023-04-01T00:22:39.220Z,48.90
2023-04-01T00:25:27.776Z,48.90
2023-04-01T00:28:16.353Z,49.00
2023-04-01T00:31:07.830Z,49.00
2023-04-01T00:33:57.934Z,49.00
2023-04-01T00:36:46.489Z,49.10
2023-04-01T00:39:35.701Z,49.10
2023-04-01T00:42:24.457Z,49.10
2023-04-01T00:45:32.972Z,49.10
2023-04-01T00:48:26.399Z,49.20
2023-04-01T00:51:19.298Z,49.10
2023-04-01T00:54:09.012Z,49.10
2023-04-01T00:57:02.194Z,49.10
2023-04-01T00:59:54.880Z,49.10
2023-04-01T01:02:45.184Z,49.00
2023-04-01T01:05:49.441Z,49.00
2023-04-01T01:09:04.857Z,49.00
2023-04-01T01:11:59.665Z,49.10
2023-04-01T01:15:09.886Z,49.00
2023-04-01T01:18:06.049Z,49.20
2023-04-01T01:21:29.666Z,49.10
2023-04-01T01:24:48.115Z,49.20
2023-04-01T01:27:40.585Z,49.30
2023-04-01T01:30:41.661Z,49.20
2023-04-01T01:33:51.248Z,49.30
2023-04-01T01:36:46.172Z,49.30
2023-04-01T01:39:37.158Z,49.20
2023-04-01T01:42:28.534Z,49.20
2023-04-01T01:45:21.055Z,49.30
2023-04-01T01:48:11.550Z,49.20
2023-04-01T01:51:01.220Z,49.30
2023-04-01T01:53:52.430Z,49.30
2023-04-01T01:56:42.383Z,49.30
2023-04-01T01:59:31.937Z,49.30
2023-04-01T02:02:21.473Z,49.30
2023-04-01T02:05:12.613Z,49.30
2023-04-01T02:08:07.521Z,49.30
2023-04-01T02:11:01.835Z,49.30
2023-04-01T02:13:54.845Z,49.40
2023-04-01T02:16:51.747Z,49.40
2023-04-01T02:19:43.562Z,49.40
2023-04-01T02:22:35.863Z,49.40
2023-04-01T02:25:28.260Z,49.50
2023-04-01T02:28:26.692Z,49.50
2023-04-01T02:31:16.948Z,49.50
2023-04-01T02:34:06.135Z,49.50
2023-04-01T02:36:55.796Z,49.50
2023-04-01T02:39:44.490Z,49.50
2023-04-01T02:42:32.938Z,49.50
2023-04-01T02:45:23.161Z,49.50
2023-04-01T02:48:13.959Z,49.50
2023-04-01T02:51:04.264Z,49.50
2023-04-01T02:53:52.638Z,49.30
2023-04-01T02:56:41.875Z,49.40
2023-04-01T02:59:31.589Z,49.30
2023-04-01T03:02:22.611Z,49.40
2023-04-01T03:05:12.111Z,49.40
2023-04-01T03:08:00.746Z,49.40
2023-04-01T03:10:49.329Z,49.40
2023-04-01T03:13:38.954Z,49.50
2023-04-01T03:16:27.560Z,49.70
2023-04-01T03:19:17.583Z,49.90
2023-04-01T03:22:06.306Z,50.00
2023-04-01T03:24:54.856Z,51.70
2023-04-01T03:27:43.946Z,51.60
2023-04-01T03:30:32.729Z,51.10
2023-04-01T03:33:21.997Z,50.90
2023-04-01T03:36:14.262Z,50.70
2023-04-01T03:39:04.278Z,50.60
2023-04-01T03:41:53.417Z,50.60
2023-04-01T03:44:42.202Z,50.50
2023-04-01T03:47:31.377Z,50.50
2023-04-01T03:50:20.955Z,50.40
2023-04-01T03:53:11.952Z,50.40
2023-04-01T03:56:00.964Z,50.40
2023-04-01T03:58:49.282Z,50.30
2023-04-01T04:01:38.700Z,50.30
2023-04-01T04:04:27.562Z,50.30
2023-04-01T04:07:17.162Z,50.30
2023-04-01T04:10:08.450Z,50.30
2023-04-01T04:12:57.438Z,50.20
2023-04-01T04:15:46.274Z,50.20
2023-04-01T04:18:35.024Z,50.20
2023-04-01T04:21:23.842Z,50.20
2023-04-01T04:24:12.364Z,50.30
2023-04-01T04:27:02.385Z,50.10
2023-04-01T04:29:51.106Z,50.10
2023-04-01T04:32:39.910Z,50.10
2023-04-01T04:35:29.501Z,50.20
2023-04-01T04:38:18.515Z,50.20
2023-04-01T04:41:12.775Z,50.20
2023-04-01T04:44:03.539Z,50.20
2023-04-01T04:46:52.964Z,50.20
2023-04-01T04:49:42.408Z,50.20
2023-04-01T04:52:31.534Z,50.20
2023-04-01T04:55:20.310Z,50.20
2023-04-01T04:58:08.762Z,50.30
2023-04-01T05:00:59.693Z,50.30
2023-04-01T05:03:48.888Z,50.30
2023-04-01T05:06:38.530Z,50.30
2023-04-01T05:09:27.681Z,50.30
2023-04-01T05:12:17.032Z,50.30
2023-04-01T05:15:06.737Z,50.30
2023-04-01T05:17:56.864Z,50.30
2023-04-01T05:20:50.172Z,50.50
2023-04-01T05:23:39.240Z,50.50
2023-04-01T05:26:27.908Z,50.50
2023-04-01T05:29:16.257Z,50.50
2023-04-01T05:32:04.937Z,50.60
2023-04-01T05:34:55.505Z,50.60
2023-04-01T05:37:43.896Z,50.70
2023-04-01T05:40:33.038Z,50.70
2023-04-01T05:43:21.891Z,50.70
2023-04-01T05:46:10.590Z,50.70
2023-04-01T05:48:59.316Z,50.70
2023-04-01T05:51:49.322Z,50.90
2023-04-01T05:54:38.428Z,50.70
2023-04-01T05:57:27.840Z,50.70
2023-04-01T06:00:17.243Z,50.70
2023-04-01T06:03:05.803Z,50.80
2023-04-01T06:05:54.875Z,50.90
2023-04-01T06:08:45.614Z,51.00
2023-04-01T06:11:41.774Z,51.00
2023-04-01T06:14:43.532Z,51.00
2023-04-01T06:17:46.350Z,51.10
2023-04-01T06:20:44.503Z,51.10
2023-04-01T06:23:53.533Z,51.10
2023-04-01T06:26:51.137Z,51.20
2023-04-01T06:30:10.569Z,51.10
2023-04-01T06:33:21.499Z,51.20
2023-04-01T06:36:28.150Z,51.30
2023-04-01T06:39:38.061Z,51.20
2023-04-01T06:42:59.686Z,51.30
2023-04-01T06:45:56.187Z,51.20
2023-04-01T06:49:04.513Z,51.30
2023-04-01T06:52:00.636Z,51.40
2023-04-01T06:54:54.288Z,51.40
2023-04-01T06:57:47.646Z,51.40
2023-04-01T07:00:40.565Z,51.40
2023-04-01T07:03:35.061Z,51.50
2023-04-01T07:06:29.282Z,51.40
2023-04-01T07:09:23.265Z,51.40
2023-04-01T07:12:21.951Z,51.50
2023-04-01T07:15:20.576Z,51.50
2023-04-01T07:18:15.446Z,51.60
2023-04-01T07:21:04.921Z,51.50
2023-04-01T07:23:55.993Z,51.50
2023-04-01T07:26:45.547Z,51.50
2023-04-01T07:29:36.253Z,51.40
2023-04-01T07:32:36.188Z,51.50
2023-04-01T07:35:33.128Z,51.60
2023-04-01T07:38:30.855Z,51.70
2023-04-01T07:41:27.583Z,51.70
2023-04-01T07:44:23.231Z,51.70
2023-04-01T07:47:25.506Z,51.80
2023-04-01T07:50:24.292Z,51.80
2023-04-01T07:53:20.279Z,51.80
2023-04-01T07:56:13.029Z,51.70
2023-04-01T07:59:06.936Z,51.70
2023-04-01T08:02:03.022Z,51.60
2023-04-01T08:05:04.326Z,51.60
2023-04-01T08:08:05.074Z,51.70
2023-04-01T08:10:58.529Z,51.60
2023-04-01T08:13:54.515Z,51.50
2023-04-01T08:16:54.661Z,51.50
2023-04-01T08:19:58.638Z,51.50
2023-04-01T08:22:53.753Z,51.30
2023-04-01T08:25:47.024Z,51.20
2023-04-01T08:28:42.476Z,51.10
2023-04-01T08:31:38.227Z,51.20
2023-04-01T08:34:31.696Z,51.10
2023-04-01T08:37:26.670Z,51.00
2023-04-01T08:40:40.098Z,50.90
2023-04-01T08:43:53.855Z,50.60
2023-04-01T08:47:22.686Z,50.50
2023-04-01T08:50:38.753Z,50.40
2023-04-01T08:53:54.052Z,50.30
2023-04-01T08:56:45.226Z,50.30
2023-04-01T08:59:54.957Z,50.20
2023-04-01T09:03:25.671Z,50.10
2023-04-01T09:06:26.730Z,50.10
2023-04-01T09:09:43.127Z,50.00
2023-04-01T09:13:08.411Z,49.70
2023-04-01T09:16:31.922Z,50.00
2023-04-01T09:19:26.911Z,49.60
2023-04-01T09:22:26.468Z,49.50
2023-04-01T09:25:58.230Z,49.20
2023-04-01T09:28:57.451Z,49.40
2023-04-01T09:32:04.449Z,49.80
2023-04-01T09:34:56.921Z,49.70
2023-04-01T09:37:56.725Z,49.30
2023-04-01T09:40:53.088Z,49.10
2023-04-01T09:44:02.799Z,48.80
2023-04-01T09:47:12.378Z,48.70
2023-04-01T09:50:26.989Z,48.70
2023-04-01T09:53:33.096Z,48.80
2023-04-01T09:56:50.259Z,48.80
2023-04-01T10:00:09.122Z,48.70
2023-04-01T10:03:31.496Z,48.90
2023-04-01T10:06:54.273Z,49.20
2023-04-01T10:10:09.721Z,49.90
2023-04-01T10:13:27.684Z,50.30
2023-04-01T10:16:43.768Z,50.30
2023-04-01T10:20:08.096Z,50.20
2023-04-01T10:23:22.610Z,50.30
2023-04-01T10:26:44.166Z,50.30
2023-04-01T10:30:14.969Z,50.60
2023-04-01T10:33:33.835Z,51.20
2023-04-01T10:36:43.341Z,51.70
2023-04-01T10:40:04.557Z,51.60
2023-04-01T10:43:35.838Z,51.70
2023-04-01T10:47:13.777Z,51.60
2023-04-01T10:50:41.098Z,51.40
2023-04-01T10:54:12.721Z,51.30
2023-04-01T10:57:05.812Z,51.00
2023-04-01T11:00:34.806Z,50.70
2023-04-01T11:03:59.277Z,50.10
2023-04-01T11:07:25.433Z,49.80
2023-04-01T11:10:43.809Z,49.10
2023-04-01T11:13:59.624Z,49.20
2023-04-01T11:17:09.353Z,49.00
2023-04-01T11:20:29.778Z,49.20
2023-04-01T11:23:43.987Z,49.70
2023-04-01T11:26:51.601Z,49.40
2023-04-01T11:30:00.504Z,49.20
2023-04-01T11:32:57.323Z,49.10
2023-04-01T11:36:07.854Z,49.00
2023-04-01T11:39:22.913Z,48.90
2023-04-01T11:42:22.887Z,48.70
2023-04-01T11:45:26.666Z,48.70
2023-04-01T11:48:30.382Z,48.50
2023-04-01T11:51:44.141Z,48.40
2023-04-01T11:55:05.826Z,48.10
2023-04-01T11:58:15.333Z,48.20
2023-04-01T12:01:27.662Z,48.00
2023-04-01T12:04:43.489Z,47.90
2023-04-01T12:07:58.898Z,47.80
2023-04-01T12:10:58.177Z,47.70
2023-04-01T12:13:53.996Z,47.90
2023-04-01T12:16:57.936Z,47.60
2023-04-01T12:19:55.185Z,47.50
2023-04-01T12:22:51.498Z,47.50
2023-04-01T12:26:12.409Z,47.60
2023-04-01T12:29:10.985Z,47.30
2023-04-01T12:32:06.636Z,47.30
2023-04-01T12:35:19.703Z,47.30
2023-04-01T12:38:24.841Z,47.00
2023-04-01T12:41:23.795Z,47.00
2023-04-01T12:44:31.617Z,47.10
2023-04-01T12:47:48.934Z,47.20
2023-04-01T12:50:59.137Z,47.20
2023-04-01T12:54:24.646Z,47.20
2023-04-01T12:57:45.853Z,47.00
2023-04-01T13:00:48.603Z,46.80
2023-04-01T13:03:55.680Z,47.00
2023-04-01T13:07:04.353Z,46.90
2023-04-01T13:10:00.920Z,47.00
2023-04-01T13:13:22.723Z,47.10
2023-04-01T13:16:17.379Z,47.00
2023-04-01T13:19:11.426Z,47.00
2023-04-01T13:22:06.129Z,47.00
2023-04-01T13:25:04.201Z,47.00
2023-04-01T13:28:03.588Z,47.00
2023-04-01T13:31:01.771Z,47.00
2023-04-01T13:34:02.575Z,47.00
2023-04-01T13:37:05.176Z,47.00
2023-04-01T13:40:29.204Z,46.90
2023-04-01T13:43:22.527Z,46.90
2023-04-01T13:46:44.317Z,46.90
2023-04-01T13:49:46.664Z,46.80
2023-04-01T13:53:21.253Z,46.80
2023-04-01T13:56:25.056Z,46.80
2023-04-01T13:59:55.806Z,46.90
2023-04-01T14:03:03.426Z,46.80
2023-04-01T14:06:05.158Z,46.80
2023-04-01T14:09:33.009Z,46.70
2023-04-01T14:12:32.182Z,46.70
2023-04-01T14:15:47.966Z,46.50
2023-04-01T14:18:48.190Z,46.50
2023-04-01T14:21:44.266Z,46.60
2023-04-01T14:24:47.641Z,46.60
2023-04-01T14:27:53.776Z,46.60
2023-04-01T14:31:16.522Z,46.50
2023-04-01T14:34:20.698Z,46.40
2023-04-01T14:37:40.004Z,46.40
2023-04-01T14:40:46.613Z,46.50
2023-04-01T14:44:18.067Z,46.50
2023-04-01T14:47:35.580Z,46.40
2023-04-01T14:50:27.521Z,46.40
2023-04-01T14:53:30.051Z,46.20
2023-04-01T14:56:38.614Z,46.30
2023-04-01T14:59:31.366Z,45.90
2023-04-01T15:02:53.587Z,46.10
2023-04-01T15:05:50.244Z,46.20
2023-04-01T15:08:52.801Z,46.20
2023-04-01T15:11:54.784Z,46.20
2023-04-01T15:15:05.105Z,46.10
2023-04-01T15:18:07.858Z,46.00
2023-04-01T15:21:13.571Z,46.00
2023-04-01T15:24:13.426Z,46.00
2023-04-01T15:27:17.578Z,45.90
2023-04-01T15:30:30.309Z,45.90
2023-04-01T15:33:49.297Z,46.00
2023-04-01T15:36:45.909Z,45.80
2023-04-01T15:39:51.390Z,45.90
2023-04-01T15:42:53.767Z,46.00
2023-04-01T15:45:51.937Z,46.00
2023-04-01T15:49:02.749Z,46.10
2023-04-01T15:52:11.606Z,46.00
2023-04-01T15:55:19.318Z,46.10
2023-04-01T15:58:38.576Z,46.10
2023-04-01T16:01:40.603Z,45.90
2023-04-01T16:04:49.261Z,45.90
2023-04-01T16:08:01.794Z,45.80
2023-04-01T16:11:01.564Z,45.80
2023-04-01T16:14:01.302Z,45.90
2023-04-01T16:17:02.739Z,45.90
2023-04-01T16:19:55.589Z,45.80
2023-04-01T16:22:52.060Z,45.90
2023-04-01T16:25:44.004Z,45.90
2023-04-01T16:28:39.853Z,45.80
2023-04-01T16:31:38.607Z,45.80
2023-04-01T16:34:33.340Z,45.80
2023-04-01T16:37:31.962Z,45.80
2023-04-01T16:40:35.698Z,45.80
2023-04-01T16:43:30.949Z,45.80
2023-04-01T16:46:36.960Z,45.70
2023-04-01T16:49:35.365Z,45.70
2023-04-01T16:52:45.991Z,45.70
2023-04-01T16:55:43.833Z,45.70
2023-04-01T16:58:38.532Z,45.70
2023-04-01T17:01:31.929Z,45.60
2023-04-01T17:04:30.579Z,45.70
2023-04-01T17:07:29.292Z,45.60
2023-04-01T17:10:36.139Z,45.60
2023-04-01T17:13:36.458Z,45.60
2023-04-01T17:16:52.150Z,45.90
2023-04-01T17:19:59.407Z,45.80
2023-04-01T17:22:55.541Z,45.60
2023-04-01T17:26:08.581Z,45.60
2023-04-01T17:29:04.263Z,45.60
2023-04-01T17:32:06.486Z,45.60
2023-04-01T17:35:07.797Z,45.60
2023-04-01T17:38:08.827Z,45.60
2023-04-01T17:41:09.007Z,45.60
2023-04-01T17:44:07.580Z,45.60
2023-04-01T17:47:15.248Z,45.70
2023-04-01T17:50:23.225Z,45.50
2023-04-01T17:53:21.909Z,45.50
2023-04-01T17:56:20.027Z,45.50
2023-04-01T17:59:18.694Z,45.40
2023-04-01T18:02:23.069Z,45.50
2023-04-01T18:05:29.228Z,45.60
2023-04-01T18:08:26.716Z,45.60
2023-04-01T18:11:26.494Z,45.50
2023-04-01T18:14:45.548Z,45.50
2023-04-01T18:17:46.282Z,45.30
2023-04-01T18:20:45.671Z,45.40
2023-04-01T18:23:44.578Z,45.40
2023-04-01T18:26:38.717Z,45.50
2023-04-01T18:29:37.404Z,45.40
2023-04-01T18:32:33.864Z,45.40
2023-04-01T18:35:31.722Z,45.40
2023-04-01T18:38:30.638Z,45.40
2023-04-01T18:41:25.339Z,45.40
2023-04-01T18:44:31.456Z,45.60
2023-04-01T18:47:29.558Z,45.70
2023-04-01T18:50:30.041Z,45.50
2023-04-01T18:53:30.032Z,45.50
2023-04-01T18:56:28.891Z,45.40
2023-04-01T18:59:24.750Z,45.40
2023-04-01T19:02:30.705Z,45.40
2023-04-01T19:05:22.637Z,45.40
2023-04-01T19:08:28.849Z,45.40
2023-04-01T19:11:26.517Z,45.40
2023-04-01T19:14:20.617Z,45.60
2023-04-01T19:17:18.584Z,45.70
2023-04-01T19:20:19.119Z,45.80
2023-04-01T19:23:41.473Z,45.90
2023-04-01T19:26:34.290Z,45.80
2023-04-01T19:29:37.658Z,45.60
2023-04-01T19:32:36.374Z,45.80
2023-04-01T19:35:43.389Z,45.70
2023-04-01T19:38:40.572Z,45.70
2023-04-01T19:41:40.825Z,45.60
2023-04-01T19:44:39.342Z,45.60
2023-04-01T19:47:44.520Z,45.50
2023-04-01T19:50:40.341Z,45.50
2023-04-01T19:53:38.386Z,45.70
2023-04-01T19:56:32.743Z,45.70
2023-04-01T19:59:29.405Z,45.80
2023-04-01T20:02:39.713Z,45.80
2023-04-01T20:05:44.752Z,45.80
2023-04-01T20:08:42.600Z,45.70
2023-04-01T20:11:41.321Z,45.50
2023-04-01T20:14:38.280Z,45.50
2023-04-01T20:17:32.710Z,45.60
2023-04-01T20:20:24.092Z,45.40
2023-04-01T20:23:33.537Z,45.50
2023-04-01T20:26:27.553Z,45.50
2023-04-01T20:29:37.781Z,45.60
2023-04-01T20:32:39.169Z,45.60
2023-04-01T20:35:48.594Z,45.60
2023-04-01T20:39:22.081Z,45.70
2023-04-01T20:42:31.871Z,45.40
2023-04-01T20:45:32.439Z,45.30
2023-04-01T20:48:41.082Z,45.40
2023-04-01T20:51:34.450Z,45.40
2023-04-01T20:54:42.548Z,45.60
2023-04-01T20:57:37.373Z,45.50
2023-04-01T21:00:34.145Z,46.50
2023-04-01T21:03:33.792Z,46.60
2023-04-01T21:06:42.482Z,47.50
2023-04-01T21:09:41.994Z,47.60
2023-04-01T21:12:39.032Z,47.20
2023-04-01T21:15:41.900Z,46.80
2023-04-01T21:18:52.287Z,46.60
2023-04-01T21:22:09.631Z,46.40
2023-04-01T21:25:20.044Z,46.20
2023-04-01T21:28:44.962Z,46.10
2023-04-01T21:31:51.189Z,45.90
2023-04-01T21:34:55.169Z,45.80
2023-04-01T21:38:18.737Z,45.80
2023-04-01T21:41:28.250Z,45.50
2023-04-01T21:44:53.330Z,45.50
2023-04-01T21:48:11.710Z,45.40
2023-04-01T21:51:39.201Z,45.40
2023-04-01T21:55:07.938Z,45.20
2023-04-01T21:58:39.673Z,45.10
2023-04-01T22:01:46.480Z,45.00
2023-04-01T22:04:47.635Z,44.70
2023-04-01T22:07:43.680Z,44.70
2023-04-01T22:10:39.579Z,44.60
2023-04-01T22:13:36.658Z,44.60
2023-04-01T22:16:33.737Z,44.50
2023-04-01T22:19:31.203Z,44.90
2023-04-01T22:22:27.043Z,44.90
2023-04-01T22:25:20.628Z,44.80
2023-04-01T22:28:13.647Z,44.80
2023-04-01T22:31:04.578Z,44.80
2023-04-01T22:34:01.907Z,44.70
2023-04-01T22:36:56.226Z,44.60
2023-04-01T22:40:00.062Z,44.50
2023-04-01T22:42:55.117Z,44.40
2023-04-01T22:46:11.425Z,44.40
2023-04-01T22:49:10.732Z,44.40
2023-04-01T22:52:04.904Z,44.40
2023-04-01T22:54:58.982Z,44.30
2023-04-01T22:57:53.244Z,44.30
2023-04-01T23:00:46.146Z,44.40
2023-04-01T23:03:40.451Z,44.60
2023-04-01T23:06:34.462Z,44.60
2023-04-01T23:09:26.209Z,44.30
2023-04-01T23:12:18.970Z,44.30
2023-04-01T23:15:14.050Z,44.10
2023-04-01T23:18:15.247Z,43.80
2023-04-01T23:21:16.147Z,43.60
2023-04-01T23:24:13.101Z,43.60
2023-04-01T23:27:05.365Z,43.60
2023-04-01T23:29:55.485Z,43.50
2023-04-01T23:32:43.913Z,43.40
2023-04-01T23:35:32.711Z,43.60
2023-04-01T23:38:24.093Z,43.50
2023-04-01T23:41:24.841Z,43.60
2023-04-01T23:44:15.574Z,43.50
2023-04-01T23:47:13.753Z,43.60
2023-04-01T23:50:05.540Z,43.60
2023-04-01T23:52:59.155Z,43.50
2023-04-01T23:55:49.611Z,43.50
2023-04-01T23:58:46.162Z,43.50
